x

San Clemente Basin - 27nm Se Of San Clemente Is, Ca (46086) Wave Buoy

12:50am - Sun 23rd Jul 2017 All times are PDT. -7 hours from GMT.

  • Sig Wave height 3.9ft
  • Swell Direction
  • Peak Period 8s
  • Average Period 7s
  • Wind
    7mph, 9mph gusts
  • Sea Temp 73°f
  • Sea Pressure 1012.2mb
  • San Clemente Basin - 27nm Se Of San Clemente Is, Ca
  • San Clemente Basin - 27nm Se Of San Clemente Is, Ca

More Historic Weather Station data

Upgrade to MSW Pro to gain access to the past 30 days of data for over 8000 Wavebouys and Weather Stations around the globe.

Join Pro

Comparision Forecast

View Surf forecast
   
Sun 07/23 12:50am 4ft 8s 7s 7 9 mph 1012.2mb 73f
Sat 07/22 11:50pm 4ft 8s 7s 4 9 mph 1012.4mb 73f
10:50pm 3.5ft 9s 7s 7 9 mph 1012.5mb 73f
9:50pm 4ft 8s 7s 4 7 mph 1012.3mb 73f
8:50pm 3.5ft 8s 7s 4 7 mph 1012.1mb 73f
7:50pm 3.5ft 8s 7s 4 7 mph 1011.5mb 73f
6:50pm 4ft 8s 7s 4 7 mph 1011.2mb 73f
5:50pm 4ft 8s 7s 4 7 mph 1011.3mb 74f
4:50pm 4.5ft 9s 7s 4 7 mph 1011.6mb 74f
3:50pm 4.5ft 8s 7s 4 7 mph 1012.1mb 74f
2:50pm 4.5ft 8s 7s 9 11 mph 1012.7mb 73f
1:50pm 5ft 9s 7s 7 9 mph 1013.6mb 73f
12:50pm 5ft 9s 7s 9 11 mph 1013.7mb 73f
11:50am 4.5ft 8s 7s 9 11 mph 1013.8mb 73f
10:50am 4.5ft 8s 7s 7 11 mph 1013.8mb 72f
9:50am 4.5ft 8s 7s 4 7 mph 1013.9mb 72f
8:50am 4.5ft 9s 7s 4 7 mph 1013.7mb 72f
7:50am 4.5ft 8s 7s 4 7 mph 1013.5mb 72f
6:50am 4.5ft 8s 7s 2 7 mph 1013mb 72f
5:50am 4.5ft 8s 7s  -  2 mph 1013mb 73f
4:50am 4.5ft 8s 7s  -  2 mph 1012.8mb 73f
3:50am 5ft 9s 7s 4 9 mph 1012.6mb 73f
2:50am 4.5ft 9s 7s 4 9 mph 1012.9mb 73f
1:50am 4.5ft 15s 7s 7 11 mph 1013.2mb 74f
12:50am 4.5ft 8s 7s 7 9 mph 1013.4mb 74f
Fri 07/21 11:50pm 4.5ft 8s 7s 9 11 mph 1013.6mb 74f
10:50pm 4.5ft 8s 7s 7 9 mph 1013.5mb 74f
9:50pm 4.5ft 8s 7s 4 9 mph 1013.3mb 74f
8:50pm 4.5ft 8s 7s 7 11 mph 1012.7mb 74f
7:50pm 4ft 9s 7s 7 11 mph 1012.3mb 74f
6:50pm 4.5ft 9s 8s 9 13 mph 1012.1mb 74f
5:50pm 4.5ft 15s 7s 9 11 mph 1012.3mb 74f
4:50pm 4.5ft 8s 7s 11 11 mph 1012.4mb 75f
3:50pm 4.5ft 15s 7s 9 11 mph 1013.2mb 75f
2:50pm 4.5ft 15s 7s 7 9 mph 1013.8mb 74f
1:50pm 5ft 8s 7s 4 7 mph 1014.2mb 74f
12:50pm 5ft 8s 7s 4 7 mph 1014.9mb 74f
11:50am 5ft 8s 7s 4 9 mph 1015.4mb 73f
10:50am 5ft 9s 7s 4 7 mph 1015.6mb 73f
9:50am 4.5ft 8s 7s 7 9 mph 1015.3mb 72f
8:50am 5ft 8s 8s 7 9 mph 1015.1mb 72f
7:50am 4.5ft 8s 7s 7 11 mph 1014.7mb 72f
6:50am 5ft 8s 8s 7 9 mph 1014.5mb 72f
5:50am 4.5ft 8s 7s 7 9 mph 1014mb 72f
4:50am 5ft 15s 8s 9 9 mph 1013.9mb 72f
3:50am 5ft 15s 7s 9 11 mph 1013.5mb 72f
2:50am 4ft 8s 7s 4 9 mph 1013.8mb 73f
1:50am 4.5ft 15s 7s 9 11 mph 1014.3mb 73f
12:50am 4.5ft 10s 7s 2 7 mph 1014.7mb 73f
Thu 07/20 11:50pm 4.5ft 16s 7s 4 7 mph 1015.1mb 73f
10:50pm 4.5ft 9s 7s 7 11 mph 1015.1mb 73f
9:50pm 5ft 10s 8s 7 9 mph 1014.9mb 73f
8:50pm 4.5ft 15s 7s 7 9 mph 1014.6mb 73f
7:50pm 4.5ft 15s 8s 7 9 mph 1014.5mb 73f
6:50pm 5ft 16s 8s 7 11 mph 1014.5mb 73f
5:50pm 4.5ft 9s 8s 7 9 mph 1014mb 73f
4:50pm 5ft 15s 8s 4 7 mph 1014.3mb 73f
3:50pm 5ft 9s  -  7 9 mph 1015mb 73f
2:50pm 5ft 16s 8s 7 9 mph 1015.8mb 73f
1:50pm 6ft 8s 8s 7 9 mph 1016.4mb 73f
12:50pm 5.5ft 16s 8s 7 9 mph 1016.7mb 73f
11:50am 5.5ft 16s 8s 4 7 mph 1016.9mb 73f
10:50am 5ft 8s 8s 7 9 mph 1017mb 72f
9:50am 5.5ft 15s 8s 7 9 mph 1016.5mb 72f
8:50am 5ft 16s 8s 7 7 mph 1016.5mb 72f
7:50am 5ft 8s 8s 7 9 mph 1016.3mb 72f
6:50am 4.5ft 16s 8s 4 9 mph 1015.9mb 72f
5:50am 5ft 16s 8s 2 4 mph 1015.3mb 72f
4:50am 5ft 16s 8s 4 7 mph 1015mb 72f
3:50am 4.5ft 16s 8s 4 7 mph 1015.1mb 72f
2:50am 5ft 8s 8s 4 7 mph 1015.1mb 72f
1:50am 4.5ft 10s  -  2 4 mph 1015.2mb 72f
12:50am 4.5ft 16s 8s 2 4 mph 1015.3mb 72f
Wed 07/19 11:50pm 5ft 10s 8s 2 4 mph 1015.5mb 72f
10:50pm 4.5ft 10s 8s 2 2 mph 1015.7mb 72f
9:50pm 5ft 9s 8s  -  2 mph 1015.5mb 72f
8:50pm 4.5ft 9s 8s 4 4 mph 1014.8mb 72f
7:50pm 4.5ft 10s 8s 4 7 mph 1014.2mb 73f
6:50pm 4.5ft 11s 8s 9 11 mph 1013.5mb 73f
5:50pm 4.5ft 10s 8s 9 11 mph 1013.4mb 73f
4:50pm 5ft 11s 9s 9 11 mph 1013.9mb 73f
3:50pm 4.5ft 11s 9s 9 11 mph 1014.5mb 73f
2:50pm 4.5ft 10s 8s 7 7 mph 1015mb 73f
1:50pm 5ft 9s 8s 4 7 mph 1015.7mb 73f
12:50pm 5ft 10s 9s 7 9 mph 1016mb 73f
11:50am 5ft 11s 8s 7 9 mph 1016.1mb 73f
10:50am 5ft 10s 8s 4 7 mph 1015.9mb 73f
9:50am 4.5ft 10s 8s 2 4 mph 1016.2mb 72f